createdAt,value
2023-04-18T00:01:26.297Z,9.30
2023-04-18T00:05:27.642Z,9.30
2023-04-18T00:09:28.777Z,9.50
2023-04-18T00:13:29.746Z,9.50
2023-04-18T00:17:32.255Z,9.30
2023-04-18T00:21:33.944Z,9.00
2023-04-18T00:25:35.083Z,9.20
2023-04-18T00:29:36.254Z,9.30
2023-04-18T00:33:37.221Z,9.20
2023-04-18T00:37:38.241Z,9.10
2023-04-18T00:41:39.373Z,8.90
2023-04-18T00:45:40.512Z,8.60
2023-04-18T00:49:42.978Z,8.50
2023-04-18T00:53:45.104Z,9.20
2023-04-18T00:57:46.626Z,8.90
2023-04-18T01:01:47.912Z,9.20
2023-04-18T01:10:52.738Z,8.60
2023-04-18T01:14:53.951Z,8.90
2023-04-18T01:18:56.333Z,8.70
2023-04-18T01:22:59.026Z,8.60
2023-04-18T01:27:01.911Z,7.90
2023-04-18T01:31:03.078Z,6.80
2023-04-18T01:35:04.727Z,7.10
2023-04-18T01:39:06.545Z,7.10
2023-04-18T01:43:07.630Z,7.10
2023-04-18T01:47:08.738Z,7.50
2023-04-18T01:51:09.848Z,7.90
2023-04-18T01:55:11.213Z,7.50
2023-04-18T01:59:12.588Z,7.50
2023-04-18T02:03:13.889Z,7.00
2023-04-18T02:07:15.232Z,6.70
2023-04-18T02:11:16.206Z,6.90
2023-04-18T02:15:17.444Z,7.40
2023-04-18T02:19:18.533Z,7.00
2023-04-18T02:23:19.499Z,6.90
2023-04-18T02:27:20.457Z,6.50
2023-04-18T02:31:21.641Z,6.80
2023-04-18T02:35:23.987Z,6.30
2023-04-18T02:39:25.104Z,6.70
2023-04-18T02:43:26.093Z,6.70
2023-04-18T02:47:27.260Z,6.20
2023-04-18T02:51:28.448Z,6.10
2023-04-18T02:55:29.402Z,6.50
2023-04-18T02:59:30.637Z,6.50
2023-04-18T03:03:31.749Z,6.30
2023-04-18T03:07:32.856Z,6.30
2023-04-18T03:11:33.986Z,6.40
2023-04-18T03:15:35.295Z,5.90
2023-04-18T03:19:36.623Z,5.50
2023-04-18T03:23:37.956Z,5.80
2023-04-18T03:27:39.071Z,5.70
2023-04-18T03:31:42.218Z,5.60
2023-04-18T03:35:43.487Z,5.20
2023-04-18T03:39:44.676Z,5.10
2023-04-18T03:43:45.708Z,5.40
2023-04-18T03:47:46.866Z,5.60
2023-04-18T03:51:48.061Z,5.40
2023-04-18T03:55:50.189Z,5.60
2023-04-18T03:59:51.321Z,5.60
2023-04-18T04:03:52.805Z,5.50
2023-04-18T04:07:54.172Z,5.60
2023-04-18T04:11:55.159Z,5.30
2023-04-18T04:15:56.638Z,5.50
2023-04-18T04:19:57.752Z,5.40
2023-04-18T04:23:58.943Z,5.70
2023-04-18T04:28:01.091Z,5.50
2023-04-18T04:32:03.146Z,5.90
2023-04-18T04:36:06.259Z,5.70
2023-04-18T04:40:08.586Z,5.70
2023-04-18T04:44:09.588Z,5.70
2023-04-18T04:48:10.809Z,5.60
2023-04-18T04:52:11.835Z,6.10
2023-04-18T04:56:12.966Z,5.90
2023-04-18T05:00:16.708Z,5.90
2023-04-18T05:04:18.502Z,6.10
2023-04-18T05:08:20.140Z,6.40
2023-04-18T05:12:21.157Z,6.00
2023-04-18T05:16:22.296Z,6.00
2023-04-18T05:20:23.924Z,6.00
2023-04-18T05:24:25.065Z,6.60
2023-04-18T05:28:26.959Z,5.60
2023-04-18T05:32:28.078Z,5.70
2023-04-18T05:36:29.099Z,5.90
2023-04-18T05:40:30.116Z,5.90
2023-04-18T05:44:31.301Z,5.70
2023-04-18T05:48:32.362Z,5.70
2023-04-18T05:52:33.603Z,5.90
2023-04-18T05:56:35.051Z,5.80
2023-04-18T06:00:36.225Z,5.90
2023-04-18T06:04:37.381Z,6.10
2023-04-18T06:08:39.491Z,6.30
2023-04-18T06:12:41.681Z,6.10
2023-04-18T06:16:42.869Z,6.00
2023-04-18T06:20:44.705Z,6.10
2023-04-18T06:24:45.786Z,6.30
2023-04-18T06:28:46.928Z,6.10
2023-04-18T06:32:47.965Z,6.60
2023-04-18T06:36:49.478Z,6.60
2023-04-18T06:40:50.443Z,6.80
2023-04-18T06:44:51.705Z,6.70
2023-04-18T06:48:52.667Z,6.90
2023-04-18T06:52:53.799Z,6.70
2023-04-18T06:56:55.400Z,6.90
2023-04-18T07:00:56.581Z,6.70
2023-04-18T07:04:57.578Z,6.60
2023-04-18T07:09:00.466Z,6.40
2023-04-18T07:13:01.416Z,6.70
2023-04-18T07:17:02.587Z,6.90
2023-04-18T07:21:05.878Z,7.20
2023-04-18T07:25:07.421Z,7.80
2023-04-18T07:29:08.672Z,8.10
2023-04-18T07:33:09.802Z,7.70
2023-04-18T07:37:14.675Z,8.00
2023-04-18T07:41:15.280Z,8.10
2023-04-18T07:45:17.320Z,7.70
2023-04-18T07:49:18.561Z,7.90
2023-04-18T07:53:19.953Z,8.10
2023-04-18T07:57:21.042Z,8.40
2023-04-18T08:01:23.974Z,8.60
2023-04-18T08:05:25.057Z,8.60
2023-04-18T08:09:26.400Z,9.30
2023-04-18T08:13:27.439Z,9.60
2023-04-18T08:18:02.660Z,9.20
2023-04-18T08:22:09.694Z,8.80
2023-04-18T08:26:10.681Z,9.40
2023-04-18T08:30:12.943Z,8.90
2023-04-18T09:04:10.402Z,9.90
2023-04-18T09:08:25.536Z,10.00
2023-04-18T09:12:28.893Z,9.70
2023-04-18T09:16:33.800Z,10.40
2023-04-18T09:20:39.391Z,9.60
2023-04-18T09:24:53.135Z,10.40
2023-04-18T09:28:54.118Z,10.90
2023-04-18T09:32:59.936Z,11.00
2023-04-18T09:37:10.128Z,10.80
2023-04-18T09:41:12.405Z,10.90
2023-04-18T09:45:14.826Z,11.00
2023-04-18T09:49:17.471Z,10.80
2023-04-18T09:53:21.060Z,10.80
2023-04-18T09:57:25.950Z,10.90
2023-04-18T10:01:28.054Z,10.60
2023-04-18T10:05:31.591Z,10.90
2023-04-18T10:09:33.853Z,11.10
2023-04-18T10:13:38.312Z,11.40
2023-04-18T10:18:02.600Z,10.60
2023-04-18T10:21:53.455Z,11.40
2023-04-18T10:25:54.829Z,11.80
2023-04-18T10:29:55.886Z,11.60
2023-04-18T10:34:04.544Z,12.30
2023-04-18T10:38:01.370Z,11.30
2023-04-18T10:42:02.586Z,11.40
2023-04-18T10:46:23.775Z,11.80
2023-04-18T10:50:14.555Z,11.20
2023-04-18T10:54:31.482Z,11.80
2023-04-18T10:58:33.886Z,11.60
2023-04-18T11:02:35.435Z,12.00
2023-04-18T11:06:49.811Z,11.70
2023-04-18T11:10:57.807Z,11.70
2023-04-18T11:15:03.423Z,12.00
2023-04-18T11:19:22.783Z,12.80
2023-04-18T11:23:24.446Z,12.40
2023-04-18T11:27:26.216Z,12.40
2023-04-18T11:31:27.247Z,12.20
2023-04-18T11:35:28.813Z,12.40
2023-04-18T11:39:35.841Z,12.80
2023-04-18T11:43:36.966Z,12.20
2023-04-18T11:47:41.118Z,11.90
2023-04-18T11:51:44.058Z,11.70
2023-04-18T11:55:48.889Z,12.70
2023-04-18T11:59:51.800Z,13.50
2023-04-18T12:04:07.486Z,13.20
2023-04-18T12:08:15.187Z,12.80
2023-04-18T12:12:18.473Z,13.10
2023-04-18T12:16:19.514Z,13.30
2023-04-18T12:20:22.498Z,12.50
2023-04-18T12:24:24.636Z,12.60
2023-04-18T12:28:27.691Z,12.20
2023-04-18T12:32:28.789Z,12.90
2023-04-18T12:36:30.233Z,12.50
2023-04-18T12:40:31.290Z,12.90
2023-04-18T12:44:32.477Z,13.20
2023-04-18T12:48:33.557Z,13.40
2023-04-18T12:52:36.978Z,13.20
2023-04-18T12:56:38.103Z,12.90
2023-04-18T13:00:39.350Z,13.00
2023-04-18T13:04:41.168Z,12.70
2023-04-18T13:08:42.373Z,12.30
2023-04-18T13:12:44.209Z,12.20
2023-04-18T13:16:46.006Z,12.20
2023-04-18T13:20:47.246Z,12.30
2023-04-18T13:24:48.356Z,12.60
2023-04-18T13:28:49.632Z,12.20
2023-04-18T13:32:50.611Z,12.30
2023-04-18T13:36:51.722Z,12.40
2023-04-18T13:41:04.421Z,12.10
2023-04-18T13:44:57.446Z,11.90
2023-04-18T13:48:58.439Z,12.10
2023-04-18T13:52:59.441Z,12.10
2023-04-18T13:57:02.587Z,12.10
2023-04-18T14:01:03.741Z,12.20
2023-04-18T14:05:05.720Z,12.40
2023-04-18T14:09:07.362Z,12.80
2023-04-18T14:13:08.358Z,12.40
2023-04-18T14:17:09.592Z,13.00
2023-04-18T14:21:10.821Z,13.50
2023-04-18T14:25:11.917Z,13.40
2023-04-18T14:29:13.840Z,13.00
2023-04-18T14:33:15.131Z,12.30
2023-04-18T14:37:17.555Z,12.50
2023-04-18T14:41:18.911Z,12.60
2023-04-18T14:45:19.989Z,12.60
2023-04-18T14:49:21.081Z,12.70
2023-04-18T14:53:22.553Z,13.10
2023-04-18T14:57:23.689Z,14.00
2023-04-18T15:01:24.856Z,13.40
2023-04-18T15:05:26.005Z,13.40
2023-04-18T15:09:26.997Z,13.70
2023-04-18T15:13:28.078Z,13.20
2023-04-18T15:17:29.312Z,12.00
2023-04-18T15:21:30.379Z,12.10
2023-04-18T15:25:31.700Z,12.30
2023-04-18T15:29:32.791Z,12.70
2023-04-18T15:33:33.945Z,12.20
2023-04-18T15:37:35.151Z,13.00
2023-04-18T15:41:36.544Z,12.50
2023-04-18T15:45:37.588Z,12.20
2023-04-18T15:49:38.620Z,12.20
2023-04-18T15:53:39.571Z,12.20
2023-04-18T15:57:41.138Z,11.50
2023-04-18T16:01:46.008Z,11.80
2023-04-18T16:05:47.653Z,11.70
2023-04-18T16:09:51.869Z,11.90
2023-04-18T16:13:55.704Z,12.40
2023-04-18T16:17:57.364Z,11.90
2023-04-18T16:21:58.390Z,11.60
2023-04-18T16:25:59.351Z,12.40
2023-04-18T16:30:00.423Z,11.80
2023-04-18T16:34:02.644Z,12.50
2023-04-18T16:38:03.650Z,11.90
2023-04-18T16:42:04.949Z,11.50
2023-04-18T16:46:06.094Z,11.70
2023-04-18T16:50:07.798Z,11.70
2023-04-18T16:54:08.798Z,12.30
2023-04-18T16:58:10.584Z,12.10
2023-04-18T17:02:11.780Z,12.40
2023-04-18T17:06:12.768Z,12.60
2023-04-18T17:10:13.825Z,11.90
2023-04-18T17:14:16.218Z,11.70
2023-04-18T17:18:17.282Z,12.60
2023-04-18T17:22:18.362Z,12.90
2023-04-18T17:26:19.750Z,12.10
2023-04-18T17:30:21.050Z,11.60
2023-04-18T17:34:22.132Z,11.30
2023-04-18T17:38:23.191Z,11.50
2023-04-18T17:42:24.229Z,12.10
2023-04-18T17:46:25.933Z,11.30
2023-04-18T17:50:27.104Z,11.30
2023-04-18T17:54:28.095Z,11.80
2023-04-18T17:58:29.126Z,11.30
2023-04-18T18:02:30.158Z,11.30
2023-04-18T18:06:31.315Z,11.50
2023-04-18T18:10:32.779Z,12.10
2023-04-18T18:14:33.805Z,11.10
2023-04-18T18:18:35.965Z,11.00
2023-04-18T18:22:37.056Z,11.00
2023-04-18T18:26:38.387Z,10.70
2023-04-18T18:30:39.821Z,10.90
2023-04-18T18:34:40.892Z,11.30
2023-04-18T18:38:41.885Z,11.40
2023-04-18T18:42:43.045Z,10.60
2023-04-18T18:46:44.099Z,10.60
2023-04-18T18:50:45.053Z,10.50
2023-04-18T18:54:46.139Z,10.70
2023-04-18T18:58:47.321Z,10.40
2023-04-18T19:02:48.421Z,11.60
2023-04-18T19:06:49.617Z,10.70
2023-04-18T19:10:50.740Z,10.70
2023-04-18T19:14:51.756Z,11.00
2023-04-18T19:18:52.870Z,12.10
2023-04-18T19:22:54.201Z,11.30
2023-04-18T19:26:55.156Z,11.60
2023-04-18T19:30:56.441Z,11.40
2023-04-18T19:34:58.821Z,11.30
2023-04-18T19:38:59.778Z,12.40
2023-04-18T19:43:00.787Z,12.30
2023-04-18T19:47:01.936Z,12.10
2023-04-18T19:51:04.058Z,12.10
2023-04-18T19:55:05.903Z,11.20
2023-04-18T19:59:07.043Z,10.70
2023-04-18T20:03:08.208Z,10.70
2023-04-18T20:07:09.400Z,11.40
2023-04-18T20:11:13.147Z,11.30
2023-04-18T20:15:14.406Z,11.10
2023-04-18T20:19:17.352Z,11.90
2023-04-18T20:23:18.833Z,12.70
2023-04-18T20:27:20.173Z,11.80
2023-04-18T20:31:21.321Z,11.10
2023-04-18T20:35:22.729Z,11.40
2023-04-18T20:39:23.859Z,11.60
2023-04-18T20:43:25.350Z,11.30
2023-04-18T20:47:27.164Z,11.40
2023-04-18T20:51:29.125Z,11.20
2023-04-18T20:55:30.476Z,11.40
2023-04-18T20:59:31.514Z,12.00
2023-04-18T21:03:32.690Z,11.10
2023-04-18T21:07:35.100Z,12.00
2023-04-18T21:11:36.098Z,10.50
2023-04-18T21:15:37.748Z,11.50
2023-04-18T21:19:38.724Z,12.00
2023-04-18T21:23:43.388Z,11.20
2023-04-18T21:27:44.367Z,11.20
2023-04-18T21:31:46.626Z,11.00
2023-04-18T21:35:47.902Z,11.00
2023-04-18T21:39:49.124Z,11.30
2023-04-18T21:43:50.864Z,10.60
2023-04-18T21:47:52.057Z,10.70
2023-04-18T21:51:54.243Z,11.10
2023-04-18T21:55:55.281Z,11.70
2023-04-18T21:59:57.413Z,11.60
2023-04-18T22:03:58.582Z,11.20
2023-04-18T22:08:00.352Z,10.70
2023-04-18T22:12:03.109Z,11.20
2023-04-18T22:16:04.937Z,10.80
2023-04-18T22:20:08.274Z,10.70
2023-04-18T22:24:09.429Z,10.70
2023-04-18T22:28:10.853Z,11.40
2023-04-18T22:32:12.170Z,11.10
2023-04-18T22:36:13.263Z,11.50
2023-04-18T22:40:15.724Z,10.90
2023-04-18T22:44:17.002Z,11.60
2023-04-18T22:48:18.209Z,10.80
2023-04-18T22:52:19.972Z,10.80
2023-04-18T22:56:21.143Z,11.20
2023-04-18T23:00:22.123Z,11.40
2023-04-18T23:04:23.316Z,11.40
2023-04-18T23:08:24.938Z,11.70
2023-04-18T23:12:26.261Z,10.60
2023-04-18T23:16:27.886Z,10.10
2023-04-18T23:20:29.066Z,10.20
2023-04-18T23:24:31.066Z,10.10
2023-04-18T23:28:32.502Z,9.90
2023-04-18T23:32:33.502Z,10.20
2023-04-18T23:36:34.865Z,10.20
2023-04-18T23:40:35.831Z,9.90
2023-04-18T23:44:37.099Z,9.90
2023-04-18T23:48:38.222Z,9.80
2023-04-18T23:52:39.873Z,10.20
2023-04-18T23:56:41.112Z,9.70
